Time;durP1;ratioP1;P1;durP2;ratioP2;P2;SDS_P1;SDS_P2;PMS_P1;PMS_P2;Temp;Humidity;BMP_temperature;BMP_pressure;BME280_temperature;BME280_humidity;BME280_pressure;Samples;Min_cycle;Max_cycle;Signal;HPM_P1;HPM_P2
2022/01/09 00:00:14;;;;;;;3.38;0.98;;;;;;;;;;4983750;28;20104;-69
2022/01/09 00:02:40;;;;;;;2.17;0.57;;;;;;;;;;4993853;28;20398;-71
2022/01/09 00:05:07;;;;;;;4.40;0.80;;;;;;;;;;4982314;28;20030;-74
2022/01/09 00:07:33;;;;;;;4.28;0.70;;;;;;;;;;4987682;28;20057;-70
2022/01/09 00:10:00;;;;;;;2.97;0.80;;;;;;;;;;4989230;28;20029;-70
2022/01/09 00:12:27;;;;;;;1.88;0.70;;;;;;;;;;4990892;28;20056;-68
2022/01/09 00:14:53;;;;;;;4.00;0.90;;;;;;;;;;4994055;28;20018;-68
2022/01/09 00:17:20;;;;;;;3.72;0.90;;;;;;;;;;4995315;28;20506;-69
2022/01/09 00:19:46;;;;;;;2.38;0.80;;;;;;;;;;4990285;28;20042;-69
2022/01/09 00:22:14;;;;;;;2.95;0.80;;;;;;;;;;4990290;28;20646;-69
2022/01/09 00:24:40;;;;;;;2.13;0.80;;;;;;;;;;4984741;28;20026;-68
2022/01/09 00:27:06;;;;;;;3.20;0.80;;;;;;;;;;4988215;28;20083;-69
2022/01/09 00:29:32;;;;;;;4.80;1.10;;;;;;;;;;4990861;28;20088;-68
2022/01/09 00:31:59;;;;;;;3.55;1.60;;;;;;;;;;4988012;28;20041;-68
2022/01/09 00:34:25;;;;;;;6.00;1.10;;;;;;;;;;4991500;28;20022;-68
2022/01/09 00:36:51;;;;;;;2.38;0.80;;;;;;;;;;4992236;28;20034;-69
2022/01/09 00:39:17;;;;;;;2.35;1.20;;;;;;;;;;4989446;28;20029;-68
2022/01/09 00:41:43;;;;;;;3.03;1.00;;;;;;;;;;4994122;28;20076;-68
2022/01/09 00:44:09;;;;;;;3.63;1.38;;;;;;;;;;4989982;28;20064;-68
2022/01/09 00:46:35;;;;;;;5.25;1.60;;;;;;;;;;4995057;28;20050;-68
2022/01/09 00:49:03;;;;;;;3.78;1.20;;;;;;;;;;4988869;28;20344;-68
2022/01/09 00:51:29;;;;;;;3.83;1.77;;;;;;;;;;4993298;28;20026;-68
2022/01/09 00:53:55;;;;;;;1.60;0.88;;;;;;;;;;4995439;28;20030;-69
2022/01/09 00:56:21;;;;;;;2.33;0.90;;;;;;;;;;4995648;28;20120;-68
2022/01/09 00:58:47;;;;;;;2.78;0.98;;;;;;;;;;4993586;28;20485;-67
2022/01/09 01:01:14;;;;;;;4.38;1.00;;;;;;;;;;4989721;28;20034;-68
2022/01/09 01:03:40;;;;;;;3.22;1.10;;;;;;;;;;4995225;28;20123;-68
2022/01/09 01:06:06;;;;;;;3.25;0.70;;;;;;;;;;4992992;28;20039;-68
2022/01/09 01:08:32;;;;;;;2.42;0.90;;;;;;;;;;4991178;28;20033;-67
2022/01/09 01:10:58;;;;;;;1.38;0.70;;;;;;;;;;4986480;28;20032;-72
2022/01/09 01:13:25;;;;;;;5.82;1.30;;;;;;;;;;4988487;28;20234;-67
2022/01/09 01:15:51;;;;;;;4.38;0.90;;;;;;;;;;4991198;28;20023;-74
2022/01/09 01:18:17;;;;;;;2.67;0.95;;;;;;;;;;4988949;28;20037;-68
2022/01/09 01:20:43;;;;;;;3.35;1.00;;;;;;;;;;4989487;28;20036;-68
2022/01/09 01:23:09;;;;;;;13.73;1.20;;;;;;;;;;4991113;28;20402;-68
2022/01/09 01:25:36;;;;;;;2.05;0.90;;;;;;;;;;4990933;28;20032;-68
2022/01/09 01:28:03;;;;;;;3.28;1.08;;;;;;;;;;4991342;28;20567;-69
2022/01/09 01:30:29;;;;;;;3.08;0.95;;;;;;;;;;4992771;28;20022;-68
2022/01/09 01:32:55;;;;;;;3.35;1.00;;;;;;;;;;4991698;28;20102;-70
2022/01/09 01:35:22;;;;;;;5.32;1.10;;;;;;;;;;4996006;28;20026;-69
2022/01/09 01:37:48;;;;;;;2.17;0.88;;;;;;;;;;5001075;28;20034;-68
2022/01/09 01:40:16;;;;;;;1.92;0.70;;;;;;;;;;4994185;28;20029;-68
2022/01/09 01:42:43;;;;;;;3.05;1.00;;;;;;;;;;4993039;28;20026;-68
2022/01/09 01:45:10;;;;;;;4.65;1.50;;;;;;;;;;4997066;28;20057;-68
2022/01/09 01:47:36;;;;;;;7.78;1.45;;;;;;;;;;4994225;28;20037;-68
2022/01/09 01:50:03;;;;;;;3.25;1.17;;;;;;;;;;4994622;28;20058;-68
2022/01/09 01:52:36;;;;;;;3.40;1.02;;;;;;;;;;4998303;28;20061;-68
2022/01/09 01:55:02;;;;;;;5.75;1.30;;;;;;;;;;4994209;28;20415;-68
2022/01/09 01:57:29;;;;;;;2.85;1.13;;;;;;;;;;5001008;28;20050;-70
2022/01/09 01:59:55;;;;;;;8.73;1.83;;;;;;;;;;4997497;28;20018;-68
2022/01/09 02:02:23;;;;;;;3.03;0.80;;;;;;;;;;4993576;28;20113;-67
2022/01/09 02:04:49;;;;;;;3.88;0.77;;;;;;;;;;4995978;28;20414;-68
2022/01/09 02:07:16;;;;;;;1.98;0.80;;;;;;;;;;4995248;28;20041;-68
2022/01/09 02:09:43;;;;;;;6.20;0.90;;;;;;;;;;4997676;28;20072;-68
2022/01/09 02:12:09;;;;;;;3.17;1.00;;;;;;;;;;4994199;28;20073;-72
2022/01/09 02:14:37;;;;;;;2.67;0.80;;;;;;;;;;4997434;28;20042;-68
2022/01/09 02:17:03;;;;;;;3.58;0.90;;;;;;;;;;4994336;28;20396;-67
2022/01/09 02:19:29;;;;;;;4.82;0.98;;;;;;;;;;4994571;28;20026;-68
2022/01/09 02:21:56;;;;;;;3.65;0.98;;;;;;;;;;4995550;28;20109;-67
2022/01/09 02:24:25;;;;;;;5.15;1.05;;;;;;;;;;4992478;28;20105;-68
2022/01/09 02:26:51;;;;;;;2.83;0.73;;;;;;;;;;4992196;28;20384;-68
2022/01/09 02:29:18;;;;;;;3.13;1.13;;;;;;;;;;4992413;28;20925;-68
2022/01/09 02:31:45;;;;;;;2.78;0.80;;;;;;;;;;4985732;28;20029;-69
2022/01/09 02:34:11;;;;;;;4.43;1.38;;;;;;;;;;4988633;28;20042;-68
2022/01/09 02:36:37;;;;;;;4.55;0.73;;;;;;;;;;4983941;28;20792;-69
2022/01/09 02:39:03;;;;;;;5.95;1.08;;;;;;;;;;4985252;28;20037;-68
2022/01/09 02:41:29;;;;;;;4.53;0.70;;;;;;;;;;4986565;28;20497;-68
2022/01/09 02:43:56;;;;;;;3.33;0.70;;;;;;;;;;4989964;28;20030;-68
2022/01/09 02:49:08;;;;;;;2.67;0.82;;;;;;;;;;4990253;28;20034;-69
2022/01/09 02:51:40;;;;;;;2.13;0.75;;;;;;;;;;4983184;28;20030;-68
2022/01/09 02:55:11;;;;;;;4.45;0.93;;;;;;;;;;4988016;28;20042;-68
2022/01/09 02:56:58;;;;;;;4.07;0.82;;;;;;;;;;4988655;28;20046;-70
2022/01/09 02:59:25;;;;;;;3.92;0.80;;;;;;;;;;4984974;28;20026;-68
2022/01/09 03:01:51;;;;;;;2.88;1.20;;;;;;;;;;4981643;28;20041;-68
2022/01/09 03:04:17;;;;;;;3.63;1.00;;;;;;;;;;4990326;28;20038;-69
2022/01/09 03:06:43;;;;;;;6.05;0.73;;;;;;;;;;4984691;28;20049;-73
2022/01/09 03:09:09;;;;;;;1.50;0.60;;;;;;;;;;4986510;28;20037;-68
2022/01/09 03:11:37;;;;;;;4.35;1.10;;;;;;;;;;4988944;28;20030;-68
2022/01/09 03:14:03;;;;;;;2.20;0.73;;;;;;;;;;4987775;28;20034;-68
2022/01/09 03:16:30;;;;;;;3.65;0.68;;;;;;;;;;4984127;28;20860;-74
2022/01/09 03:18:56;;;;;;;5.50;1.00;;;;;;;;;;4985584;28;20153;-68
2022/01/09 03:21:22;;;;;;;4.22;1.30;;;;;;;;;;4984000;28;20456;-69
2022/01/09 03:23:48;;;;;;;3.58;0.65;;;;;;;;;;4986965;28;20118;-68
2022/01/09 03:26:14;;;;;;;3.45;0.70;;;;;;;;;;4984273;28;20034;-68
2022/01/09 03:28:40;;;;;;;1.95;0.68;;;;;;;;;;4988517;28;20093;-68
2022/01/09 03:31:06;;;;;;;2.17;0.45;;;;;;;;;;4987277;28;20038;-68
2022/01/09 03:33:33;;;;;;;1.30;0.60;;;;;;;;;;4988904;28;20036;-69
2022/01/09 03:35:59;;;;;;;6.53;1.10;;;;;;;;;;4990139;28;20049;-68
2022/01/09 03:38:25;;;;;;;4.22;0.90;;;;;;;;;;4986657;28;20030;-68
2022/01/09 03:40:51;;;;;;;2.10;0.70;;;;;;;;;;4984974;28;20026;-68
2022/01/09 03:43:17;;;;;;;0.93;0.60;;;;;;;;;;4991685;28;20026;-68
2022/01/09 03:45:44;;;;;;;3.45;0.80;;;;;;;;;;4985379;28;20054;-68
2022/01/09 03:48:10;;;;;;;6.00;1.00;;;;;;;;;;4987242;28;20038;-68
2022/01/09 03:50:36;;;;;;;2.55;0.90;;;;;;;;;;4986319;28;20029;-68
2022/01/09 03:53:04;;;;;;;6.15;1.00;;;;;;;;;;4984334;28;20030;-71
2022/01/09 03:55:30;;;;;;;5.93;0.95;;;;;;;;;;4981598;28;20114;-68
2022/01/09 03:57:56;;;;;;;3.92;0.80;;;;;;;;;;4988932;28;20037;-69
2022/01/09 04:00:23;;;;;;;3.28;0.90;;;;;;;;;;4985944;28;20356;-68
2022/01/09 04:02:50;;;;;;;4.07;1.40;;;;;;;;;;4985906;28;20130;-68
2022/01/09 04:05:16;;;;;;;2.08;0.80;;;;;;;;;;4981098;28;20030;-68
2022/01/09 04:07:42;;;;;;;4.85;0.75;;;;;;;;;;4981664;28;20469;-68
2022/01/09 04:10:09;;;;;;;3.45;0.90;;;;;;;;;;4994913;28;20057;-68
2022/01/09 04:12:46;;;;;;;3.28;1.00;;;;;;;;;;4986045;28;20032;-68
2022/01/09 04:15:13;;;;;;;7.05;1.15;;;;;;;;;;4991665;28;20022;-68
2022/01/09 04:20:11;;;;;;;;;;;;;;;;;;4986696;28;20478;-68
2022/01/09 04:22:37;;;;;;;6.20;1.13;;;;;;;;;;4988759;28;20420;-69
2022/01/09 04:25:04;;;;;;;7.78;1.23;;;;;;;;;;4988488;28;20031;-68
2022/01/09 04:27:30;;;;;;;3.97;0.88;;;;;;;;;;4991030;28;20122;-68
2022/01/09 04:29:56;;;;;;;7.43;2.35;;;;;;;;;;4980625;28;20121;-68
2022/01/09 04:32:22;;;;;;;7.78;0.93;;;;;;;;;;4983713;28;20084;-68
2022/01/09 04:34:50;;;;;;;3.42;0.88;;;;;;;;;;4982751;28;20022;-68
2022/01/09 04:37:16;;;;;;;5.28;1.23;;;;;;;;;;4982648;28;20093;-68
2022/01/09 04:39:45;;;;;;;7.05;1.55;;;;;;;;;;4983782;28;20456;-69
2022/01/09 04:42:11;;;;;;;4.88;1.10;;;;;;;;;;4982330;28;20381;-68
2022/01/09 04:44:37;;;;;;;5.28;0.98;;;;;;;;;;4982600;28;20018;-68
2022/01/09 04:47:09;;;;;;;7.95;1.30;;;;;;;;;;4982758;28;20034;-68
2022/01/09 04:49:39;;;;;;;3.33;1.23;;;;;;;;;;4983142;28;20030;-68
2022/01/09 04:52:07;;;;;;;6.05;1.20;;;;;;;;;;4981806;28;20419;-68
2022/01/09 04:54:34;;;;;;;6.32;1.50;;;;;;;;;;4981705;28;20031;-68
2022/01/09 04:57:02;;;;;;;5.53;1.25;;;;;;;;;;4982365;28;20461;-68
2022/01/09 04:59:28;;;;;;;7.40;1.40;;;;;;;;;;4985253;28;20625;-67
2022/01/09 05:01:54;;;;;;;4.82;1.27;;;;;;;;;;4980441;28;20037;-68
2022/01/09 05:04:21;;;;;;;5.57;1.00;;;;;;;;;;4980137;28;20041;-68
2022/01/09 05:06:47;;;;;;;3.42;1.10;;;;;;;;;;4978432;28;20032;-68
2022/01/09 05:09:13;;;;;;;9.23;1.40;;;;;;;;;;4987538;28;20406;-68
2022/01/09 05:11:39;;;;;;;8.00;1.35;;;;;;;;;;4985791;28;20026;-68
2022/01/09 05:14:05;;;;;;;4.82;1.00;;;;;;;;;;4983695;28;20514;-68
2022/01/09 05:16:32;;;;;;;5.18;0.98;;;;;;;;;;4978833;28;20047;-68
2022/01/09 05:19:03;;;;;;;6.57;1.58;;;;;;;;;;4987854;28;20401;-68
2022/01/09 05:21:30;;;;;;;8.82;1.65;;;;;;;;;;4978964;28;20062;-68
2022/01/09 05:23:56;;;;;;;5.80;1.02;;;;;;;;;;4985741;28;20022;-68
2022/01/09 05:26:22;;;;;;;10.13;1.55;;;;;;;;;;4979978;28;20085;-69
2022/01/09 05:28:48;;;;;;;7.20;1.23;;;;;;;;;;4986948;28;20026;-68
2022/01/09 05:31:14;;;;;;;4.53;1.10;;;;;;;;;;4992212;28;20088;-68
2022/01/09 05:33:41;;;;;;;6.47;1.05;;;;;;;;;;4980019;28;20027;-68
2022/01/09 05:36:07;;;;;;;8.98;1.42;;;;;;;;;;4979158;28;20864;-74
2022/01/09 05:38:33;;;;;;;5.68;1.23;;;;;;;;;;4977338;28;20654;-68
2022/01/09 05:40:59;;;;;;;6.30;1.23;;;;;;;;;;4987853;28;20034;-68
2022/01/09 05:43:26;;;;;;;8.02;1.48;;;;;;;;;;4979972;28;20065;-68
2022/01/09 05:45:52;;;;;;;3.38;0.93;;;;;;;;;;4979811;28;20648;-67
2022/01/09 05:48:18;;;;;;;9.55;1.95;;;;;;;;;;4980057;28;20030;-68
2022/01/09 05:50:45;;;;;;;8.70;1.35;;;;;;;;;;4986607;28;20172;-68
2022/01/09 05:53:11;;;;;;;8.30;1.13;;;;;;;;;;4979977;28;20608;-68
2022/01/09 05:55:37;;;;;;;5.53;1.30;;;;;;;;;;4982202;28;20061;-68
2022/01/09 05:58:03;;;;;;;6.00;1.20;;;;;;;;;;4979417;28;20045;-68
2022/01/09 06:00:30;;;;;;;9.35;1.40;;;;;;;;;;4982489;28;20606;-72
2022/01/09 06:02:56;;;;;;;7.32;1.67;;;;;;;;;;4978441;28;20033;-68
2022/01/09 06:05:23;;;;;;;7.72;1.35;;;;;;;;;;4980208;28;20101;-68
2022/01/09 06:07:49;;;;;;;9.95;1.50;;;;;;;;;;4989364;28;20586;-68
2022/01/09 06:10:15;;;;;;;4.50;1.60;;;;;;;;;;4984942;28;20036;-68
2022/01/09 06:12:42;;;;;;;8.60;0.90;;;;;;;;;;4983120;28;20033;-68
2022/01/09 06:15:08;;;;;;;6.22;1.48;;;;;;;;;;4989814;28;20030;-70
2022/01/09 06:17:36;;;;;;;9.77;1.30;;;;;;;;;;4993729;28;20045;-68
2022/01/09 06:20:02;;;;;;;6.75;1.20;;;;;;;;;;4989139;28;20034;-68
2022/01/09 06:22:28;;;;;;;8.77;1.83;;;;;;;;;;4985204;28;20038;-68
2022/01/09 06:24:54;;;;;;;12.15;1.42;;;;;;;;;;4985991;28;20022;-68
2022/01/09 06:27:21;;;;;;;4.47;1.30;;;;;;;;;;4992844;28;20029;-68
2022/01/09 06:29:47;;;;;;;3.72;1.10;;;;;;;;;;4985393;28;20065;-68
2022/01/09 06:32:13;;;;;;;5.43;1.17;;;;;;;;;;4989600;28;20042;-68
2022/01/09 06:34:43;;;;;;;8.10;1.80;;;;;;;;;;4987430;28;20645;-68
2022/01/09 06:37:12;;;;;;;6.88;1.80;;;;;;;;;;4992012;28;20046;-68
2022/01/09 06:39:42;;;;;;;8.32;1.70;;;;;;;;;;4984090;28;20025;-67
2022/01/09 06:42:08;;;;;;;8.65;1.80;;;;;;;;;;4995102;28;20616;-68
2022/01/09 06:44:34;;;;;;;5.22;1.20;;;;;;;;;;4987110;28;20037;-68
2022/01/09 06:47:00;;;;;;;5.25;1.50;;;;;;;;;;4986558;28;20444;-68
2022/01/09 06:49:27;;;;;;;8.05;2.15;;;;;;;;;;4984291;28;20034;-70
2022/01/09 06:51:53;;;;;;;5.43;1.10;;;;;;;;;;4982676;28;20033;-68
2022/01/09 06:54:19;;;;;;;8.88;1.63;;;;;;;;;;4984382;28;20037;-68
2022/01/09 06:56:45;;;;;;;9.10;1.45;;;;;;;;;;4984592;28;20035;-68
2022/01/09 06:59:11;;;;;;;9.07;1.42;;;;;;;;;;4984515;28;20085;-68
2022/01/09 07:01:38;;;;;;;8.55;2.40;;;;;;;;;;4983786;28;20089;-68
2022/01/09 07:04:04;;;;;;;4.35;1.38;;;;;;;;;;4981471;28;20027;-68
2022/01/09 07:06:30;;;;;;;9.88;1.73;;;;;;;;;;4983308;28;20027;-68
2022/01/09 07:08:56;;;;;;;8.40;1.98;;;;;;;;;;4982562;28;20445;-68
2022/01/09 07:11:22;;;;;;;9.98;2.92;;;;;;;;;;4982235;28;20038;-68
2022/01/09 07:13:48;;;;;;;8.02;1.60;;;;;;;;;;4980893;28;20022;-68
2022/01/09 07:16:15;;;;;;;4.40;1.65;;;;;;;;;;4982049;28;20038;-68
2022/01/09 07:18:41;;;;;;;9.15;1.55;;;;;;;;;;4984074;28;20077;-68
2022/01/09 07:21:07;;;;;;;12.18;1.77;;;;;;;;;;4985158;28;20049;-68
2022/01/09 07:23:33;;;;;;;9.65;1.83;;;;;;;;;;4985349;28;20026;-68
2022/01/09 07:25:59;;;;;;;9.70;2.08;;;;;;;;;;4988266;28;20026;-68
2022/01/09 07:28:25;;;;;;;6.40;1.30;;;;;;;;;;4983740;28;20026;-68
2022/01/09 07:30:51;;;;;;;14.65;1.75;;;;;;;;;;4990333;28;20092;-68
2022/01/09 07:33:18;;;;;;;10.20;1.70;;;;;;;;;;4983951;28;20022;-68
2022/01/09 07:35:44;;;;;;;7.28;1.98;;;;;;;;;;4982451;28;20419;-68
2022/01/09 07:38:10;;;;;;;7.57;1.30;;;;;;;;;;4982473;28;20138;-68
2022/01/09 07:40:36;;;;;;;7.13;1.85;;;;;;;;;;4983406;28;20041;-68
2022/01/09 07:43:02;;;;;;;11.40;2.33;;;;;;;;;;4982149;28;20061;-68
2022/01/09 07:45:29;;;;;;;7.63;1.90;;;;;;;;;;4983439;28;20562;-68
2022/01/09 07:47:57;;;;;;;8.15;1.88;;;;;;;;;;4983231;28;20045;-68
2022/01/09 07:50:24;;;;;;;10.35;1.55;;;;;;;;;;4983367;28;20034;-68
2022/01/09 07:52:51;;;;;;;9.02;1.50;;;;;;;;;;4982008;28;20031;-68
2022/01/09 07:55:19;;;;;;;5.03;1.52;;;;;;;;;;4983373;28;20037;-68
2022/01/09 07:57:45;;;;;;;5.78;1.70;;;;;;;;;;4982888;28;20037;-68
2022/01/09 08:00:12;;;;;;;6.35;1.73;;;;;;;;;;4983476;28;20034;-68
2022/01/09 08:02:38;;;;;;;9.95;2.90;;;;;;;;;;4981711;28;20620;-68
2022/01/09 08:05:04;;;;;;;4.72;1.50;;;;;;;;;;4983018;28;20022;-68
2022/01/09 08:07:30;;;;;;;9.52;1.75;;;;;;;;;;4984367;28;20123;-68
2022/01/09 08:09:57;;;;;;;6.90;2.00;;;;;;;;;;4983490;28;20117;-68
2022/01/09 08:12:23;;;;;;;7.65;1.48;;;;;;;;;;4982794;28;20054;-68
2022/01/09 08:14:49;;;;;;;12.05;2.20;;;;;;;;;;4983001;28;20616;-68
2022/01/09 08:17:15;;;;;;;8.20;1.60;;;;;;;;;;4981429;28;20422;-68
2022/01/09 08:19:42;;;;;;;9.57;1.75;;;;;;;;;;4983228;28;20113;-69
2022/01/09 08:22:09;;;;;;;6.30;1.58;;;;;;;;;;4982935;28;20475;-68
2022/01/09 08:24:35;;;;;;;5.80;1.33;;;;;;;;;;4990199;28;20022;-68
2022/01/09 08:27:02;;;;;;;6.78;1.92;;;;;;;;;;4981060;28;20030;-68
2022/01/09 08:29:28;;;;;;;9.13;1.70;;;;;;;;;;4981936;28;20026;-68
2022/01/09 08:31:54;;;;;;;11.73;1.80;;;;;;;;;;4982760;28;20026;-68
2022/01/09 08:34:21;;;;;;;5.90;1.42;;;;;;;;;;4982856;28;20026;-68
2022/01/09 08:36:47;;;;;;;6.90;2.03;;;;;;;;;;4982629;28;20042;-68
2022/01/09 08:39:13;;;;;;;6.70;1.60;;;;;;;;;;4981999;28;20821;-68
2022/01/09 08:41:39;;;;;;;10.93;2.20;;;;;;;;;;4981360;28;20034;-68
2022/01/09 08:44:07;;;;;;;10.80;2.38;;;;;;;;;;4982298;28;20514;-69
2022/01/09 08:46:36;;;;;;;8.30;2.63;;;;;;;;;;4979425;28;20046;-68
2022/01/09 08:49:04;;;;;;;10.55;3.22;;;;;;;;;;4982454;28;20033;-68
2022/01/09 08:51:30;;;;;;;8.65;2.35;;;;;;;;;;4981430;28;20054;-68
2022/01/09 08:53:57;;;;;;;10.60;2.25;;;;;;;;;;4986694;28;20053;-68
2022/01/09 08:56:24;;;;;;;8.52;1.70;;;;;;;;;;4985309;28;20043;-68
2022/01/09 08:58:51;;;;;;;11.15;1.80;;;;;;;;;;4982880;28;20024;-68
2022/01/09 09:01:17;;;;;;;10.98;2.63;;;;;;;;;;4989837;28;20034;-68
2022/01/09 09:03:43;;;;;;;9.43;2.42;;;;;;;;;;4980901;28;20045;-69
2022/01/09 09:06:13;;;;;;;12.77;2.22;;;;;;;;;;4982147;28;20037;-68
2022/01/09 09:08:40;;;;;;;11.65;2.08;;;;;;;;;;4982372;28;20046;-68
2022/01/09 09:11:07;;;;;;;12.88;3.13;;;;;;;;;;4981140;28;20573;-68
2022/01/09 09:13:34;;;;;;;9.82;2.33;;;;;;;;;;4982204;28;20037;-68
2022/01/09 09:16:00;;;;;;;7.55;1.98;;;;;;;;;;4982202;28;20022;-68
2022/01/09 09:18:27;;;;;;;13.18;2.63;;;;;;;;;;4980639;28;20529;-68
2022/01/09 09:20:53;;;;;;;8.48;2.50;;;;;;;;;;4981950;28;20113;-68
2022/01/09 09:23:19;;;;;;;14.43;2.63;;;;;;;;;;4982757;28;20430;-68
2022/01/09 09:25:46;;;;;;;19.13;3.03;;;;;;;;;;4982350;28;20054;-68
2022/01/09 09:28:12;;;;;;;17.33;3.55;;;;;;;;;;4982624;28;20038;-68
2022/01/09 09:30:39;;;;;;;15.90;2.65;;;;;;;;;;4980843;28;20915;-68
2022/01/09 09:33:05;;;;;;;11.90;2.17;;;;;;;;;;4982595;28;20023;-68
2022/01/09 09:35:35;;;;;;;13.02;3.00;;;;;;;;;;4982346;28;20164;-68
2022/01/09 09:38:01;;;;;;;12.20;2.40;;;;;;;;;;4981754;28;20125;-68
2022/01/09 09:40:28;;;;;;;8.80;1.90;;;;;;;;;;4983074;28;20038;-68
2022/01/09 09:42:54;;;;;;;12.38;2.22;;;;;;;;;;4994170;28;20030;-68
2022/01/09 09:45:23;;;;;;;9.88;3.45;;;;;;;;;;4985908;28;20034;-68
2022/01/09 09:47:49;;;;;;;9.80;1.90;;;;;;;;;;4985769;28;20058;-68
2022/01/09 09:50:16;;;;;;;9.43;2.42;;;;;;;;;;4985313;28;20019;-68
2022/01/09 09:52:43;;;;;;;13.68;2.28;;;;;;;;;;4987363;28;20104;-67
2022/01/09 09:55:09;;;;;;;13.98;2.33;;;;;;;;;;4987277;28;21284;-67
2022/01/09 09:57:35;;;;;;;6.45;1.85;;;;;;;;;;4992082;28;20502;-67
2022/01/09 10:00:11;;;;;;;13.23;2.47;;;;;;;;;;4991388;28;20018;-67
2022/01/09 10:02:47;;;;;;;10.70;2.50;;;;;;;;;;4987613;28;20475;-67
2022/01/09 10:05:14;;;;;;;11.40;2.72;;;;;;;;;;4983121;28;20037;-67
2022/01/09 10:07:51;;;;;;;10.00;2.15;;;;;;;;;;4984989;28;20201;-68
2022/01/09 10:10:18;;;;;;;8.88;1.88;;;;;;;;;;4987584;28;20041;-67
2022/01/09 10:12:45;;;;;;;14.20;2.08;;;;;;;;;;4995381;28;20022;-67
2022/01/09 10:15:13;;;;;;;12.38;1.60;;;;;;;;;;4993088;28;20545;-67
2022/01/09 10:17:47;;;;;;;6.72;1.40;;;;;;;;;;4989064;28;20046;-66
2022/01/09 10:20:20;;;;;;;21.02;3.38;;;;;;;;;;4997991;28;20094;-67
2022/01/09 10:22:46;;;;;;;11.25;2.30;;;;;;;;;;4994204;28;20045;-67
2022/01/09 10:25:16;;;;;;;9.48;1.92;;;;;;;;;;4992205;28;20034;-68
2022/01/09 10:27:42;;;;;;;17.33;2.22;;;;;;;;;;4992136;28;20029;-67
2022/01/09 10:30:08;;;;;;;13.23;2.42;;;;;;;;;;4999501;28;20096;-67
2022/01/09 10:32:35;;;;;;;10.73;1.83;;;;;;;;;;4994727;28;20036;-67
2022/01/09 10:35:20;;;;;;;10.48;2.22;;;;;;;;;;4997871;28;20076;-67
2022/01/09 10:37:47;;;;;;;11.25;2.10;;;;;;;;;;4992258;28;20038;-68
2022/01/09 10:40:21;;;;;;;5.50;1.55;;;;;;;;;;5004767;28;20076;-67
2022/01/09 10:43:01;;;;;;;12.18;2.08;;;;;;;;;;5001419;28;20620;-67
2022/01/09 10:45:27;;;;;;;10.85;2.25;;;;;;;;;;4985917;28;20039;-68
2022/01/09 10:48:01;;;;;;;11.40;2.83;;;;;;;;;;4984918;28;20129;-69
2022/01/09 10:50:31;;;;;;;10.52;2.47;;;;;;;;;;4987141;28;20030;-75
2022/01/09 10:53:15;;;;;;;15.23;3.15;;;;;;;;;;4992020;28;20061;-67
2022/01/09 10:55:42;;;;;;;14.07;2.13;;;;;;;;;;4995893;28;20026;-68
2022/01/09 10:58:18;;;;;;;14.23;2.70;;;;;;;;;;4991223;28;20150;-67
2022/01/09 11:00:45;;;;;;;10.20;2.40;;;;;;;;;;4986249;28;20101;-68
2022/01/09 11:03:11;;;;;;;7.22;2.17;;;;;;;;;;4996065;28;20153;-67
2022/01/09 11:05:38;;;;;;;11.88;1.92;;;;;;;;;;4991481;28;20030;-68
2022/01/09 11:08:05;;;;;;;8.20;1.80;;;;;;;;;;4997619;28;20050;-67
2022/01/09 11:10:33;;;;;;;8.85;1.70;;;;;;;;;;4989123;28;20029;-67
2022/01/09 11:13:01;;;;;;;16.17;3.45;;;;;;;;;;4995572;28;20026;-74
2022/01/09 11:15:29;;;;;;;13.32;2.65;;;;;;;;;;4999852;28;20524;-68
2022/01/09 11:17:58;;;;;;;12.43;2.35;;;;;;;;;;4993123;28;20133;-70
2022/01/09 11:20:25;;;;;;;9.73;2.45;;;;;;;;;;4996798;28;20034;-69
2022/01/09 11:22:54;;;;;;;7.30;1.88;;;;;;;;;;4992695;28;20049;-68
2022/01/09 11:25:26;;;;;;;9.77;1.90;;;;;;;;;;4992634;28;20035;-71
2022/01/09 11:27:56;;;;;;;15.18;2.25;;;;;;;;;;4988713;28;21000;-70
2022/01/09 11:30:29;;;;;;;9.02;1.90;;;;;;;;;;4988070;28;20032;-70
2022/01/09 11:33:07;;;;;;;12.65;2.67;;;;;;;;;;4986428;28;20030;-71
2022/01/09 11:35:46;;;;;;;13.18;2.33;;;;;;;;;;4988160;28;20065;-73
2022/01/09 11:38:32;;;;;;;14.43;2.33;;;;;;;;;;4983207;28;20124;-74
2022/01/09 11:41:17;;;;;;;13.00;2.28;;;;;;;;;;4985640;28;20026;-72
2022/01/09 11:43:52;;;;;;;11.85;2.58;;;;;;;;;;4981634;28;20041;-68
2022/01/09 11:46:19;;;;;;;8.88;1.98;;;;;;;;;;4989287;28;20096;-69
2022/01/09 11:48:54;;;;;;;13.55;2.72;;;;;;;;;;4979620;28;20026;-69
2022/01/09 11:51:21;;;;;;;16.95;2.40;;;;;;;;;;4989588;28;20034;-68
2022/01/09 11:53:59;;;;;;;13.63;2.75;;;;;;;;;;4988162;28;20023;-72
2022/01/09 11:56:44;;;;;;;13.60;2.97;;;;;;;;;;4987843;28;20052;-68
2022/01/09 11:59:19;;;;;;;16.95;2.67;;;;;;;;;;4993867;28;20038;-70
2022/01/09 12:01:50;;;;;;;8.55;1.90;;;;;;;;;;4982237;28;20185;-69
2022/01/09 12:04:31;;;;;;;13.93;3.63;;;;;;;;;;4984224;28;20034;-70
2022/01/09 12:07:04;;;;;;;16.40;3.50;;;;;;;;;;4988650;28;20046;-70
2022/01/09 12:09:31;;;;;;;15.07;2.70;;;;;;;;;;4981506;28;20798;-70
2022/01/09 12:12:04;;;;;;;10.82;2.40;;;;;;;;;;4989103;28;20033;-70
2022/01/09 12:14:42;;;;;;;17.42;2.97;;;;;;;;;;4985854;28;20022;-70
2022/01/09 12:17:28;;;;;;;18.85;2.50;;;;;;;;;;4986744;28;20085;-71
2022/01/09 12:20:24;;;;;;;15.10;3.15;;;;;;;;;;4978622;28;20502;-70
2022/01/09 12:23:09;;;;;;;13.02;2.38;;;;;;;;;;4965594;28;20043;-71
2022/01/09 12:25:35;;;;;;;13.82;2.70;;;;;;;;;;4981963;28;20030;-69
2022/01/09 12:28:10;;;;;;;13.25;3.28;;;;;;;;;;4980739;28;20061;-70
2022/01/09 12:30:40;;;;;;;15.88;2.53;;;;;;;;;;4988527;28;20650;-76
2022/01/09 12:33:10;;;;;;;14.25;3.03;;;;;;;;;;4981245;28;20042;-70
2022/01/09 12:35:40;;;;;;;12.70;2.58;;;;;;;;;;4987086;28;20032;-73
2022/01/09 12:38:06;;;;;;;8.60;2.35;;;;;;;;;;4982099;28;20073;-75
2022/01/09 12:40:34;;;;;;;12.38;2.50;;;;;;;;;;4988185;28;20471;-69
2022/01/09 12:43:01;;;;;;;12.77;2.60;;;;;;;;;;4983462;28;20038;-70
2022/01/09 12:45:29;;;;;;;8.88;2.15;;;;;;;;;;4984971;28;20506;-71
2022/01/09 12:47:56;;;;;;;17.17;3.22;;;;;;;;;;4985723;28;20811;-71
2022/01/09 12:50:27;;;;;;;13.18;2.50;;;;;;;;;;4987960;28;20498;-71
2022/01/09 12:53:14;;;;;;;11.23;2.33;;;;;;;;;;4979933;28;20034;-78
2022/01/09 12:56:12;;;;;;;13.35;2.50;;;;;;;;;;4978633;28;20030;-73
2022/01/09 12:58:43;;;;;;;17.52;3.33;;;;;;;;;;4963862;28;20502;-71
2022/01/09 13:01:11;;;;;;;9.50;2.28;;;;;;;;;;4984433;28;20065;-70
2022/01/09 13:03:40;;;;;;;13.60;3.10;;;;;;;;;;4997186;28;20099;-70
2022/01/09 13:06:08;;;;;;;10.55;2.40;;;;;;;;;;4982321;28;20080;-72
2022/01/09 13:08:35;;;;;;;20.95;4.03;;;;;;;;;;4986222;28;20022;-72
2022/01/09 13:11:02;;;;;;;15.60;2.65;;;;;;;;;;4978376;28;20026;-71
2022/01/09 13:13:29;;;;;;;13.65;3.03;;;;;;;;;;4985747;28;20572;-69
2022/01/09 13:15:56;;;;;;;10.63;2.83;;;;;;;;;;4988826;28;20030;-70
2022/01/09 13:18:55;;;;;;;17.70;3.05;;;;;;;;;;4985832;28;20038;-71
2022/01/09 13:21:23;;;;;;;18.40;3.40;;;;;;;;;;4971690;28;20053;-69
2022/01/09 13:24:06;;;;;;;11.18;2.10;;;;;;;;;;4995625;28;20078;-71
2022/01/09 13:26:55;;;;;;;13.50;2.50;;;;;;;;;;4990063;28;20204;-70
2022/01/09 13:29:23;;;;;;;24.45;4.07;;;;;;;;;;4981107;28;20061;-70
2022/01/09 13:31:50;;;;;;;13.13;3.22;;;;;;;;;;4994824;28;20047;-72
2022/01/09 13:34:17;;;;;;;17.88;3.42;;;;;;;;;;4994562;28;20033;-71
2022/01/09 13:36:48;;;;;;;14.35;2.90;;;;;;;;;;4983954;28;20061;-70
2022/01/09 13:39:27;;;;;;;14.77;2.95;;;;;;;;;;4989825;28;20309;-70
2022/01/09 13:41:58;;;;;;;13.90;3.58;;;;;;;;;;4985959;28;20018;-70
2022/01/09 13:44:28;;;;;;;17.25;2.83;;;;;;;;;;4994404;28;20033;-70
2022/01/09 13:47:05;;;;;;;18.20;3.28;;;;;;;;;;4983694;28;20214;-71
2022/01/09 13:49:33;;;;;;;14.65;3.30;;;;;;;;;;4989535;28;20068;-81
2022/01/09 13:51:59;;;;;;;19.55;3.88;;;;;;;;;;4987442;28;20026;-78
2022/01/09 13:54:28;;;;;;;17.42;3.28;;;;;;;;;;4993879;28;20058;-70
2022/01/09 13:56:59;;;;;;;19.38;3.40;;;;;;;;;;4992689;28;20111;-72
2022/01/09 13:59:34;;;;;;;13.05;3.25;;;;;;;;;;4994188;28;20036;-71
2022/01/09 14:02:00;;;;;;;22.65;2.83;;;;;;;;;;4984055;28;20053;-70
2022/01/09 14:04:26;;;;;;;17.40;3.33;;;;;;;;;;4996605;28;20034;-72
2022/01/09 14:06:59;;;;;;;14.50;2.78;;;;;;;;;;4989810;28;20041;-70
2022/01/09 14:09:30;;;;;;;16.38;2.95;;;;;;;;;;4993399;28;20030;-70
2022/01/09 14:12:00;;;;;;;19.13;3.53;;;;;;;;;;5003205;28;20486;-74
2022/01/09 14:14:33;;;;;;;15.25;3.33;;;;;;;;;;4987706;28;20034;-72
2022/01/09 14:17:00;;;;;;;17.30;5.05;;;;;;;;;;4990446;28;20088;-70
2022/01/09 14:19:46;;;;;;;11.57;2.90;;;;;;;;;;4987723;28;20026;-74
2022/01/09 14:22:13;;;;;;;12.00;3.00;;;;;;;;;;4981999;28;20181;-71
2022/01/09 14:24:57;;;;;;;22.02;4.15;;;;;;;;;;4990891;28;20037;-71
2022/01/09 14:27:30;;;;;;;13.75;2.75;;;;;;;;;;4981661;28;20038;-74
2022/01/09 14:29:57;;;;;;;12.55;3.33;;;;;;;;;;4986339;28;20100;-76
2022/01/09 14:32:23;;;;;;;11.48;2.65;;;;;;;;;;4993548;28;20109;-76
2022/01/09 14:34:50;;;;;;;25.40;5.72;;;;;;;;;;4982303;28;20051;-70
2022/01/09 14:37:17;;;;;;;13.15;2.90;;;;;;;;;;4990442;28;20089;-70
2022/01/09 14:39:43;;;;;;;13.18;4.03;;;;;;;;;;4983094;28;20083;-70
2022/01/09 14:42:09;;;;;;;14.30;4.68;;;;;;;;;;4997314;28;20146;-69
2022/01/09 14:44:36;;;;;;;20.85;4.18;;;;;;;;;;4985844;28;20034;-70
2022/01/09 14:47:03;;;;;;;15.75;2.70;;;;;;;;;;4984523;28;20115;-73
2022/01/09 14:49:29;;;;;;;13.18;3.40;;;;;;;;;;4987179;28;20076;-70